Time;durP1;ratioP1;P1;durP2;ratioP2;P2;SDS_P1;SDS_P2;PMS_P1;PMS_P2;Temp;Humidity;BMP_temperature;BMP_pressure;BME280_temperature;BME280_humidity;BME280_pressure;Samples;Min_cycle;Max_cycle;Signal;HPM_P1;HPM_P2
2021/12/11 00:00:34;;;;;;;19.40;13.17;;;3.70;88.80;;;;;;5019725;28;20495;-48
2021/12/11 00:03:16;;;;;;;17.23;12.00;;;3.70;88.80;;;;;;5032182;28;20462;-48
2021/12/11 00:05:50;;;;;;;21.70;12.20;;;3.70;88.70;;;;;;5016513;28;20502;-48
2021/12/11 00:08:20;;;;;;;20.17;12.60;;;3.70;88.70;;;;;;5033250;28;20536;-48
2021/12/11 00:11:01;;;;;;;17.20;12.60;;;3.70;88.60;;;;;;5033404;28;20479;-48
2021/12/11 00:13:31;;;;;;;15.80;11.63;;;3.70;88.70;;;;;;5028811;28;20463;-48
2021/12/11 00:15:59;;;;;;;17.53;12.17;;;3.70;88.70;;;;;;5035724;28;20451;-48
2021/12/11 00:18:28;;;;;;;15.83;11.50;;;3.60;89.10;;;;;;5031566;28;20460;-48
2021/12/11 00:21:01;;;;;;;16.67;11.43;;;3.60;89.10;;;;;;5031543;28;20458;-48
2021/12/11 00:23:40;;;;;;;19.90;12.90;;;3.70;88.90;;;;;;5031636;28;20460;-48
2021/12/11 00:26:10;;;;;;;20.73;13.37;;;3.60;88.90;;;;;;5031206;28;20459;-48
2021/12/11 00:28:48;;;;;;;17.07;12.47;;;3.70;89.00;;;;;;5031037;28;20468;-48
2021/12/11 00:31:16;;;;;;;18.60;12.70;;;3.60;89.00;;;;;;5036018;28;20491;-48
2021/12/11 00:33:45;;;;;;;14.50;11.70;;;3.70;89.00;;;;;;5031546;28;20466;-49
2021/12/11 00:36:16;;;;;;;15.60;12.50;;;3.70;88.80;;;;;;5033676;28;20822;-48
2021/12/11 00:38:47;;;;;;;16.80;11.37;;;3.70;88.70;;;;;;5029253;28;20456;-48
2021/12/11 00:41:17;;;;;;;15.13;11.63;;;3.70;88.90;;;;;;5034113;28;20455;-48
2021/12/11 00:43:45;;;;;;;14.63;11.77;;;3.70;88.80;;;;;;5016630;28;20508;-48
2021/12/11 00:46:17;;;;;;;14.30;11.20;;;3.60;88.90;;;;;;5012340;28;20475;-48
2021/12/11 00:48:44;;;;;;;15.80;11.23;;;3.60;89.10;;;;;;5016660;28;20476;-48
2021/12/11 00:51:18;;;;;;;14.63;11.40;;;3.70;89.30;;;;;;5016824;28;20496;-48
2021/12/11 00:53:52;;;;;;;16.23;10.93;;;3.70;88.90;;;;;;5018358;28;20460;-48
2021/12/11 00:56:31;;;;;;;12.63;10.40;;;3.70;88.80;;;;;;5025883;28;20468;-48
2021/12/11 00:59:01;;;;;;;16.10;11.20;;;3.70;88.90;;;;;;5031705;28;20836;-47
2021/12/11 01:01:29;;;;;;;13.67;11.70;;;3.70;89.00;;;;;;5031899;28;20463;-48
2021/12/11 01:04:00;;;;;;;16.43;12.00;;;3.70;89.00;;;;;;5037813;28;20459;-48
2021/12/11 01:07:01;;;;;;;13.27;9.80;;;3.70;89.10;;;;;;5021307;28;20459;-48
2021/12/11 01:09:32;;;;;;;14.63;10.50;;;3.60;89.10;;;;;;5029760;28;20460;-48
2021/12/11 01:12:23;;;;;;;16.00;10.47;;;3.60;89.10;;;;;;5029112;28;20462;-48
2021/12/11 01:15:07;;;;;;;15.87;11.63;;;3.60;89.10;;;;;;5035276;28;20455;-48
2021/12/11 01:17:46;;;;;;;16.33;11.03;;;3.70;89.30;;;;;;5035491;28;20455;-48
2021/12/11 01:20:24;;;;;;;14.30;10.40;;;3.70;89.10;;;;;;5032342;28;20471;-48
2021/12/11 01:22:52;;;;;;;15.43;11.17;;;3.70;89.10;;;;;;5029041;28;20447;-48
2021/12/11 01:25:31;;;;;;;15.93;10.90;;;3.70;89.00;;;;;;5020982;28;20462;-48
2021/12/11 01:28:03;;;;;;;14.60;10.47;;;3.80;88.80;;;;;;5028575;28;20490;-48
2021/12/11 01:30:37;;;;;;;13.67;10.13;;;3.70;88.80;;;;;;5036092;28;20554;-48
2021/12/11 01:33:07;;;;;;;15.37;11.47;;;3.70;88.90;;;;;;5028418;28;20486;-48
2021/12/11 01:35:34;;;;;;;13.37;10.73;;;3.70;89.10;;;;;;5028132;28;20447;-48
2021/12/11 01:38:17;;;;;;;15.30;10.67;;;3.70;89.40;;;;;;5027963;28;20449;-48
2021/12/11 01:40:51;;;;;;;15.40;10.40;;;3.70;89.30;;;;;;5030381;28;20447;-48
2021/12/11 01:43:22;;;;;;;12.53;9.67;;;3.70;89.40;;;;;;5023274;28;21040;-48
2021/12/11 01:45:51;;;;;;;16.60;10.80;;;3.70;89.30;;;;;;5038578;28;20467;-48
2021/12/11 01:48:23;;;;;;;14.73;11.00;;;3.70;89.30;;;;;;5033760;28;20455;-48
2021/12/11 01:51:20;;;;;;;13.53;9.00;;;3.70;89.30;;;;;;5037294;28;20491;-48
2021/12/11 01:53:56;;;;;;;17.53;11.47;;;3.70;89.40;;;;;;5034729;28;20535;-48
2021/12/11 01:56:27;;;;;;;19.17;11.17;;;3.60;89.40;;;;;;5027611;28;20456;-48
2021/12/11 01:59:00;;;;;;;17.57;10.30;;;3.70;89.40;;;;;;5037876;28;20664;-48
2021/12/11 02:01:38;;;;;;;16.57;11.00;;;3.60;89.50;;;;;;5036956;28;20725;-48
2021/12/11 02:04:07;;;;;;;13.53;9.97;;;3.70;89.40;;;;;;5041157;28;20542;-48
2021/12/11 02:06:39;;;;;;;14.80;10.60;;;3.70;89.40;;;;;;5020793;28;20470;-48
2021/12/11 02:09:25;;;;;;;12.77;10.10;;;3.70;89.40;;;;;;5036688;28;20451;-48
2021/12/11 02:12:09;;;;;;;12.77;9.30;;;3.70;89.50;;;;;;5034621;28;20483;-48
2021/12/11 02:14:41;;;;;;;17.00;10.30;;;3.60;89.50;;;;;;5036844;28;20447;-48
2021/12/11 02:17:41;;;;;;;15.13;10.57;;;3.70;89.60;;;;;;5033572;28;20832;-48
2021/12/11 02:20:12;;;;;;;13.30;10.00;;;3.70;89.50;;;;;;5022728;28;20513;-48
2021/12/11 02:22:47;;;;;;;12.97;10.47;;;3.70;89.50;;;;;;5029106;28;20444;-48
2021/12/11 02:25:26;;;;;;;16.20;11.33;;;3.80;89.30;;;;;;5035470;28;20470;-48
2021/12/11 02:28:17;;;;;;;17.77;9.90;;;3.80;89.30;;;;;;5035213;28;20947;-48
2021/12/11 02:31:15;;;;;;;13.60;10.17;;;3.80;89.00;;;;;;5031959;28;20484;-48
2021/12/11 02:34:06;;;;;;;14.17;10.57;;;3.80;88.60;;;;;;5035320;28;20444;-48
2021/12/11 02:36:40;;;;;;;15.23;11.20;;;3.80;88.40;;;;;;5032862;28;20466;-48
2021/12/11 02:39:20;;;;;;;14.80;10.90;;;3.70;88.70;;;;;;5021130;28;20853;-48
2021/12/11 02:41:53;;;;;;;14.90;11.70;;;3.70;89.00;;;;;;5035216;28;20451;-48
2021/12/11 02:44:33;;;;;;;17.50;11.43;;;3.70;89.10;;;;;;5034701;28;20535;-48
2021/12/11 02:47:25;;;;;;;16.33;10.43;;;3.80;88.90;;;;;;5022757;28;20455;-48
2021/12/11 02:49:59;;;;;;;17.60;10.37;;;3.80;88.60;;;;;;5039305;28;20464;-48
2021/12/11 02:52:58;;;;;;;16.33;11.50;;;3.80;88.50;;;;;;5036905;28;20473;-48
2021/12/11 02:55:45;;;;;;;15.87;10.27;;;3.80;88.40;;;;;;5035697;28;20471;-48
2021/12/11 02:58:18;;;;;;;16.00;10.80;;;3.80;88.00;;;;;;5032339;28;20464;-48
2021/12/11 03:00:55;;;;;;;15.50;11.17;;;3.80;88.00;;;;;;5038075;28;20546;-48
2021/12/11 03:03:27;;;;;;;18.03;11.90;;;3.80;88.00;;;;;;5034736;28;20479;-48
2021/12/11 03:06:05;;;;;;;11.73;10.00;;;3.90;87.90;;;;;;5033956;28;20964;-48
2021/12/11 03:08:33;;;;;;;17.00;11.00;;;3.90;87.50;;;;;;5039578;28;20447;-48
2021/12/11 03:11:06;;;;;;;11.93;9.93;;;3.90;87.40;;;;;;5018721;28;20499;-48
2021/12/11 03:13:37;;;;;;;16.33;10.50;;;3.90;87.40;;;;;;5034516;28;20457;-48
2021/12/11 03:16:06;;;;;;;13.87;10.80;;;3.90;87.50;;;;;;5028496;28;20452;-45
2021/12/11 03:18:33;;;;;;;12.70;9.70;;;3.90;87.60;;;;;;5022429;28;20487;-45
2021/12/11 03:21:01;;;;;;;17.70;10.07;;;3.90;87.60;;;;;;5005099;28;20467;-45
2021/12/11 03:23:28;;;;;;;18.30;10.07;;;3.90;87.40;;;;;;5019712;28;20459;-45
2021/12/11 03:25:55;;;;;;;13.70;9.60;;;3.90;87.30;;;;;;5020191;28;20476;-44
2021/12/11 03:28:22;;;;;;;14.93;10.53;;;3.90;87.30;;;;;;5025597;28;20475;-45
2021/12/11 03:30:57;;;;;;;14.17;10.20;;;3.90;87.30;;;;;;5018727;28;20498;-45
2021/12/11 03:33:27;;;;;;;14.27;10.60;;;3.90;87.20;;;;;;5017116;28;20459;-45
2021/12/11 03:35:55;;;;;;;16.13;11.00;;;3.90;87.30;;;;;;5023851;28;20459;-45
2021/12/11 03:38:24;;;;;;;15.87;11.33;;;3.90;87.20;;;;;;5020108;28;20848;-45
2021/12/11 03:40:52;;;;;;;16.03;10.97;;;3.90;87.10;;;;;;5022574;28;20474;-45
2021/12/11 03:43:22;;;;;;;16.90;11.40;;;3.90;87.40;;;;;;5022959;28;20961;-45
2021/12/11 03:45:52;;;;;;;12.50;10.67;;;3.80;87.50;;;;;;5021971;28;20555;-45
2021/12/11 03:48:32;;;;;;;15.20;10.23;;;3.90;87.50;;;;;;5021073;28;20478;-45
2021/12/11 03:51:10;;;;;;;14.27;9.03;;;3.90;87.30;;;;;;5013554;28;20517;-48
2021/12/11 03:53:38;;;;;;;15.70;10.10;;;3.90;87.30;;;;;;5034960;28;20445;-48
2021/12/11 03:56:08;;;;;;;16.27;11.30;;;3.90;87.20;;;;;;5035569;28;20460;-48
2021/12/11 03:58:36;;;;;;;14.00;11.57;;;3.90;87.20;;;;;;5035688;28;20467;-48
2021/12/11 04:01:06;;;;;;;13.93;11.50;;;3.90;87.30;;;;;;5033002;28;20470;-48
2021/12/11 04:03:36;;;;;;;19.70;12.27;;;3.90;87.50;;;;;;5032141;28;20492;-48
2021/12/11 04:06:06;;;;;;;14.23;10.80;;;3.90;87.30;;;;;;5014528;28;20460;-48
2021/12/11 04:08:40;;;;;;;19.07;12.00;;;4.00;87.10;;;;;;5019940;28;20468;-48
2021/12/11 04:11:10;;;;;;;14.57;10.77;;;4.00;87.00;;;;;;5029255;28;20487;-48
2021/12/11 04:13:38;;;;;;;16.23;10.73;;;4.00;87.10;;;;;;5030873;28;20985;-48
2021/12/11 04:16:07;;;;;;;15.33;11.63;;;3.90;87.20;;;;;;5030269;28;20944;-48
2021/12/11 04:18:34;;;;;;;17.60;11.70;;;3.90;87.20;;;;;;5017755;28;20452;-48
2021/12/11 04:21:02;;;;;;;17.87;12.07;;;3.90;87.30;;;;;;5034157;28;20471;-48
2021/12/11 04:23:29;;;;;;;13.37;10.90;;;4.00;87.00;;;;;;5033768;28;20468;-48
2021/12/11 04:25:57;;;;;;;15.13;11.40;;;4.00;87.00;;;;;;5021085;28;20457;-48
2021/12/11 04:28:27;;;;;;;15.90;12.40;;;3.90;87.00;;;;;;5037311;28;20467;-48
2021/12/11 04:31:03;;;;;;;21.17;14.60;;;3.90;87.00;;;;;;5037330;28;20498;-48
2021/12/11 04:33:33;;;;;;;18.23;13.80;;;4.00;87.10;;;;;;5031416;28;20534;-48
2021/12/11 04:36:00;;;;;;;19.77;13.43;;;4.00;87.10;;;;;;5031454;28;20456;-48
2021/12/11 04:38:27;;;;;;;21.80;14.30;;;3.90;87.10;;;;;;5032882;28;20612;-48
2021/12/11 04:40:57;;;;;;;19.67;13.60;;;3.90;87.20;;;;;;5014265;28;20694;-48
2021/12/11 04:43:25;;;;;;;14.67;11.90;;;4.00;87.20;;;;;;5035822;28;20455;-48
2021/12/11 04:46:08;;;;;;;16.77;13.10;;;4.00;87.00;;;;;;5036385;28;20460;-47
2021/12/11 04:52:18;;;;;;;19.23;13.27;;;3.90;87.20;;;;;;5028581;28;20502;-48
2021/12/11 05:13:35;;;;;;;21.70;13.80;;;3.90;86.50;;;;;;5031039;28;20474;-48
2021/12/11 05:16:07;;;;;;;21.10;14.83;;;3.90;86.80;;;;;;5035645;28;20468;-48
2021/12/11 05:18:36;;;;;;;21.63;15.30;;;3.90;86.70;;;;;;5036320;28;20530;-48
2021/12/11 05:21:07;;;;;;;22.13;14.40;;;3.90;87.10;;;;;;5038031;28;20537;-47
2021/12/11 05:23:34;;;;;;;19.37;13.80;;;3.90;87.00;;;;;;5025151;28;20569;-48
2021/12/11 05:26:01;;;;;;;21.80;14.73;;;3.90;87.10;;;;;;5026302;28;20464;-48
2021/12/11 05:28:28;;;;;;;18.73;14.00;;;3.90;87.40;;;;;;5026251;28;20467;-47
2021/12/11 05:30:57;;;;;;;24.37;15.10;;;3.90;87.20;;;;;;5038608;28;20495;-48
2021/12/11 05:33:24;;;;;;;21.80;15.10;;;3.90;87.00;;;;;;5025059;28;20455;-48
2021/12/11 05:35:52;;;;;;;20.13;14.53;;;3.90;86.80;;;;;;5043713;28;20961;-48
2021/12/11 05:38:21;;;;;;;20.30;14.83;;;3.90;86.90;;;;;;5037935;28;20964;-48
2021/12/11 05:40:55;;;;;;;23.47;16.70;;;3.90;87.00;;;;;;5017893;28;20459;-48
2021/12/11 05:43:22;;;;;;;25.50;15.77;;;3.90;87.00;;;;;;5041319;28;20542;-48
2021/12/11 05:45:49;;;;;;;26.20;15.73;;;3.90;87.00;;;;;;5019453;28;20455;-49
2021/12/11 05:48:16;;;;;;;21.27;14.50;;;3.90;86.60;;;;;;5017389;28;20455;-48
2021/12/11 05:50:47;;;;;;;22.53;15.20;;;3.90;86.30;;;;;;5037892;28;20530;-48
2021/12/11 05:53:14;;;;;;;19.03;14.87;;;3.90;86.50;;;;;;5036889;28;20448;-48
2021/12/11 05:55:42;;;;;;;22.57;14.07;;;3.90;86.40;;;;;;5040090;28;20538;-48
2021/12/11 05:58:12;;;;;;;22.30;15.00;;;3.90;86.30;;;;;;5036549;28;21205;-48
2021/12/11 06:00:43;;;;;;;24.97;15.93;;;3.80;86.50;;;;;;5040874;28;20523;-48
2021/12/11 06:03:12;;;;;;;18.10;14.77;;;3.80;86.30;;;;;;5036183;28;20481;-48
2021/12/11 06:05:40;;;;;;;20.97;15.20;;;3.80;86.20;;;;;;5036766;28;20455;-48
2021/12/11 06:08:08;;;;;;;22.80;15.30;;;3.80;86.10;;;;;;5036127;28;20542;-48
2021/12/11 06:10:36;;;;;;;27.80;15.90;;;3.70;86.20;;;;;;5040406;28;20474;-48
2021/12/11 06:13:04;;;;;;;25.07;17.07;;;3.70;86.50;;;;;;5038751;28;20490;-48
2021/12/11 06:15:31;;;;;;;23.23;16.27;;;3.70;86.50;;;;;;5032945;28;20458;-48
2021/12/11 06:17:58;;;;;;;26.30;15.80;;;3.70;86.50;;;;;;5020352;28;20482;-48
2021/12/11 06:20:28;;;;;;;22.27;15.63;;;3.70;86.60;;;;;;5038744;28;20452;-48
2021/12/11 06:23:00;;;;;;;23.57;15.67;;;3.60;86.60;;;;;;5025367;28;20531;-48
2021/12/11 06:25:32;;;;;;;20.57;15.13;;;3.50;86.70;;;;;;5020854;28;20463;-48
2021/12/11 06:27:58;;;;;;;24.00;16.33;;;3.50;86.70;;;;;;5038360;28;20446;-48
2021/12/11 06:30:27;;;;;;;23.53;15.40;;;3.50;86.70;;;;;;5017738;28;20479;-48
2021/12/11 06:32:55;;;;;;;23.77;16.40;;;3.50;86.70;;;;;;5036678;28;20526;-48
2021/12/11 06:35:36;;;;;;;22.37;15.47;;;3.40;86.60;;;;;;5022343;28;20458;-48
2021/12/11 06:38:04;;;;;;;26.67;15.07;;;3.40;86.50;;;;;;5039300;28;20938;-48
2021/12/11 06:40:31;;;;;;;19.90;13.30;;;3.40;86.60;;;;;;5034411;28;20462;-48
2021/12/11 06:42:59;;;;;;;24.33;15.57;;;3.30;86.70;;;;;;5035241;28;20459;-48
2021/12/11 06:45:27;;;;;;;24.03;15.20;;;3.20;86.80;;;;;;5040335;28;20454;-48
2021/12/11 06:47:54;;;;;;;27.77;14.97;;;3.20;87.00;;;;;;5020313;28;20464;-48
2021/12/11 06:50:22;;;;;;;22.20;15.50;;;3.10;87.10;;;;;;5030796;28;20487;-48
2021/12/11 06:52:49;;;;;;;21.90;15.20;;;3.10;87.10;;;;;;5034242;28;20487;-48
2021/12/11 06:55:18;;;;;;;23.80;14.53;;;3.10;87.10;;;;;;5018641;28;20464;-48
2021/12/11 06:57:46;;;;;;;19.50;15.00;;;3.10;87.10;;;;;;5033557;28;20880;-48
2021/12/11 07:00:15;;;;;;;24.27;16.57;;;3.10;86.90;;;;;;5036679;28;20523;-48
2021/12/11 07:02:42;;;;;;;27.30;16.97;;;3.10;86.70;;;;;;5017286;28;20460;-48
2021/12/11 07:05:11;;;;;;;24.83;16.40;;;3.00;86.70;;;;;;5037844;28;20528;-48
2021/12/11 07:07:40;;;;;;;27.30;15.80;;;3.00;86.60;;;;;;5023932;28;20563;-48
2021/12/11 07:10:11;;;;;;;27.13;16.70;;;3.00;86.60;;;;;;5019785;28;20464;-48
2021/12/11 07:12:37;;;;;;;26.57;16.70;;;2.90;86.80;;;;;;5036747;28;20483;-48
2021/12/11 07:15:07;;;;;;;28.10;16.07;;;2.90;86.90;;;;;;5037217;28;20454;-48
2021/12/11 07:17:34;;;;;;;24.17;15.70;;;2.90;86.90;;;;;;5036634;28;20695;-48
2021/12/11 07:20:04;;;;;;;25.47;15.33;;;2.90;87.10;;;;;;5019763;28;20463;-48
2021/12/11 07:22:31;;;;;;;26.70;17.93;;;2.90;87.10;;;;;;5033433;28;20467;-48
2021/12/11 07:25:07;;;;;;;25.20;15.10;;;3.00;87.20;;;;;;5019130;28;20458;-48
2021/12/11 07:27:34;;;;;;;28.70;16.90;;;2.90;87.50;;;;;;5037982;28;20470;-48
2021/12/11 07:30:01;;;;;;;22.47;15.40;;;3.00;87.50;;;;;;5043272;28;20486;-48
2021/12/11 07:32:28;;;;;;;25.33;16.93;;;2.90;87.50;;;;;;5025588;28;20509;-48
2021/12/11 07:34:55;;;;;;;27.23;17.00;;;2.90;87.50;;;;;;5034597;28;20461;-48
2021/12/11 07:37:21;;;;;;;26.93;15.20;;;2.90;87.60;;;;;;5018253;28;20464;-48
2021/12/11 07:39:48;;;;;;;26.73;17.73;;;2.90;87.60;;;;;;5034254;28;20464;-48
2021/12/11 07:42:15;;;;;;;28.50;16.73;;;2.80;87.70;;;;;;5037026;28;20458;-48
2021/12/11 07:44:42;;;;;;;27.80;17.37;;;2.90;87.70;;;;;;5020040;28;20472;-48
2021/12/11 07:47:09;;;;;;;27.97;17.10;;;2.90;87.60;;;;;;5032244;28;20536;-48
2021/12/11 07:49:36;;;;;;;26.03;16.23;;;2.90;87.40;;;;;;5034397;28;20459;-48
2021/12/11 07:52:07;;;;;;;22.40;15.67;;;2.90;87.20;;;;;;5035691;28;20489;-48
2021/12/11 07:54:34;;;;;;;27.57;17.07;;;2.90;87.20;;;;;;5036199;28;20562;-48
2021/12/11 07:57:01;;;;;;;25.07;15.93;;;2.90;87.20;;;;;;5037073;28;20491;-48
2021/12/11 07:59:28;;;;;;;24.90;14.40;;;2.90;87.40;;;;;;5020315;28;20463;-49
2021/12/11 08:01:54;;;;;;;29.40;17.50;;;2.90;87.40;;;;;;5037192;28;21192;-47
2021/12/11 08:04:23;;;;;;;28.33;17.77;;;2.90;87.60;;;;;;5019017;28;20454;-48
2021/12/11 08:06:51;;;;;;;29.33;17.50;;;2.90;87.60;;;;;;5031928;28;20515;-47
2021/12/11 08:09:20;;;;;;;27.43;17.03;;;2.90;87.70;;;;;;5032733;28;20838;-47
2021/12/11 08:11:48;;;;;;;32.90;16.50;;;2.90;87.80;;;;;;5035083;28;20484;-47
2021/12/11 08:14:16;;;;;;;24.67;17.30;;;2.90;87.80;;;;;;5035020;28;20459;-47
2021/12/11 08:16:47;;;;;;;32.10;16.47;;;3.00;87.80;;;;;;5022766;28;20451;-47
2021/12/11 08:19:20;;;;;;;26.13;17.07;;;3.00;87.90;;;;;;5034924;28;20985;-47
2021/12/11 08:21:50;;;;;;;32.40;18.30;;;3.00;87.90;;;;;;5034427;28;20470;-47
2021/12/11 08:24:18;;;;;;;31.30;18.13;;;3.10;87.90;;;;;;5037995;28;20466;-47
2021/12/11 08:26:46;;;;;;;34.17;17.47;;;3.10;87.90;;;;;;5032820;28;20483;-48
2021/12/11 08:29:14;;;;;;;32.30;16.93;;;3.10;87.90;;;;;;5029917;28;20459;-48
2021/12/11 08:31:45;;;;;;;32.23;17.63;;;3.20;87.80;;;;;;5035606;28;20711;-48
2021/12/11 08:34:12;;;;;;;28.07;16.50;;;3.20;87.60;;;;;;5038049;28;20948;-49
2021/12/11 08:36:39;;;;;;;26.50;15.70;;;3.30;87.60;;;;;;5035269;28;20474;-48
2021/12/11 08:39:10;;;;;;;35.23;17.67;;;3.30;87.60;;;;;;5036443;28;20491;-47
2021/12/11 08:41:38;;;;;;;26.17;17.27;;;3.30;87.60;;;;;;5036047;28;20474;-48
2021/12/11 08:44:11;;;;;;;26.53;16.30;;;3.30;87.80;;;;;;5036825;28;20446;-48
2021/12/11 08:46:41;;;;;;;30.03;17.30;;;3.40;87.90;;;;;;5032883;28;20462;-48
2021/12/11 08:49:13;;;;;;;32.77;18.67;;;3.40;87.70;;;;;;5027904;28;20526;-48
2021/12/11 08:51:45;;;;;;;34.30;17.83;;;3.50;87.70;;;;;;5033955;28;20820;-48
2021/12/11 08:54:12;;;;;;;27.30;16.70;;;3.50;87.60;;;;;;5020730;28;20467;-48
2021/12/11 08:56:40;;;;;;;34.17;17.97;;;3.60;87.50;;;;;;5032653;28;20467;-48
2021/12/11 08:59:19;;;;;;;31.03;19.00;;;3.60;87.50;;;;;;5032516;28;20501;-48
2021/12/11 09:01:59;;;;;;;27.77;16.40;;;3.70;87.40;;;;;;5051870;28;20538;-48
2021/12/11 09:04:38;;;;;;;29.77;17.57;;;3.70;87.40;;;;;;5037039;28;20462;-48
2021/12/11 09:07:17;;;;;;;36.17;18.33;;;3.70;87.60;;;;;;5032139;28;20467;-48
2021/12/11 09:09:48;;;;;;;32.33;17.43;;;3.80;87.70;;;;;;5032238;28;20527;-48
2021/12/11 09:12:29;;;;;;;27.70;17.17;;;3.80;87.80;;;;;;5033031;28;20491;-48
2021/12/11 09:15:09;;;;;;;26.67;16.60;;;3.90;88.00;;;;;;5029307;28;20470;-48
2021/12/11 09:17:47;;;;;;;34.53;17.53;;;3.90;88.20;;;;;;5033176;28;20487;-48
2021/12/11 09:20:19;;;;;;;24.83;15.63;;;4.00;88.30;;;;;;5027915;28;20456;-48
2021/12/11 09:22:54;;;;;;;25.90;15.70;;;4.10;88.20;;;;;;5029011;28;20467;-48
2021/12/11 09:25:41;;;;;;;29.20;17.97;;;4.20;88.00;;;;;;5038956;28;20469;-48
2021/12/11 09:28:18;;;;;;;25.53;17.00;;;4.30;87.50;;;;;;5032035;28;21004;-48
2021/12/11 09:30:51;;;;;;;29.03;17.00;;;4.40;87.10;;;;;;5040061;28;20514;-48
2021/12/11 09:33:23;;;;;;;26.87;16.40;;;4.50;86.80;;;;;;5034144;28;20482;-48
2021/12/11 09:35:58;;;;;;;22.33;15.00;;;4.60;86.10;;;;;;5020066;28;20489;-48
2021/12/11 09:38:29;;;;;;;26.30;14.90;;;4.70;85.90;;;;;;5014416;28;20459;-48
2021/12/11 09:40:57;;;;;;;20.90;13.10;;;4.70;85.70;;;;;;5031602;28;20459;-48
2021/12/11 09:43:48;;;;;;;25.33;12.83;;;4.90;84.40;;;;;;5030527;28;20452;-47
2021/12/11 09:46:24;;;;;;;27.00;12.87;;;5.00;83.70;;;;;;5038559;28;20471;-48
2021/12/11 09:48:54;;;;;;;18.17;11.10;;;5.10;83.10;;;;;;5030187;28;20462;-48
2021/12/11 09:51:27;;;;;;;21.50;12.77;;;5.20;82.70;;;;;;5028347;28;20472;-48
2021/12/11 09:53:58;;;;;;;19.40;11.77;;;5.30;82.80;;;;;;5018780;28;20451;-48
2021/12/11 09:56:57;;;;;;;18.17;11.93;;;5.40;81.30;;;;;;5031685;28;20447;-48
2021/12/11 09:59:27;;;;;;;15.37;10.43;;;5.50;80.80;;;;;;5030259;28;20462;-48
2021/12/11 10:01:57;;;;;;;17.53;10.90;;;5.60;80.30;;;;;;5030616;28;20455;-48
2021/12/11 10:04:36;;;;;;;15.60;9.73;;;5.70;80.80;;;;;;5035981;28;20814;-48
2021/12/11 10:09:48;;;;;;;17.90;11.00;;;5.90;79.70;;;;;;5037366;28;20478;-48
2021/12/11 10:12:20;;;;;;;16.50;10.10;;;6.00;79.10;;;;;;5019219;28;20487;-48
2021/12/11 10:14:53;;;;;;;17.70;9.20;;;6.10;77.70;;;;;;5020588;28;20459;-48
2021/12/11 10:17:23;;;;;;;20.50;12.50;;;6.20;78.10;;;;;;5033209;28;20445;-48
2021/12/11 10:19:55;;;;;;;18.53;11.87;;;6.20;78.40;;;;;;5021091;28;20481;-48
2021/12/11 10:22:33;;;;;;;16.13;11.17;;;6.30;79.40;;;;;;5019974;28;20820;-48
2021/12/11 10:25:02;;;;;;;16.50;11.13;;;6.30;78.90;;;;;;5017662;28;20451;-48
2021/12/11 10:27:31;;;;;;;16.90;11.20;;;6.30;78.80;;;;;;5033521;28;21340;-48
2021/12/11 10:30:00;;;;;;;20.13;12.10;;;6.30;79.20;;;;;;5025662;28;20493;-48
2021/12/11 10:32:30;;;;;;;19.43;12.43;;;6.30;78.40;;;;;;5035172;28;20483;-48
2021/12/11 10:35:01;;;;;;;18.33;12.03;;;6.30;78.50;;;;;;5035966;28;20474;-48
2021/12/11 10:37:36;;;;;;;19.47;13.63;;;6.30;79.00;;;;;;5035266;28;20547;-48
2021/12/11 10:40:29;;;;;;;16.10;11.63;;;6.20;79.00;;;;;;5019881;28;20447;-48
2021/12/11 10:43:01;;;;;;;18.20;12.13;;;6.10;79.20;;;;;;5016959;28;20456;-48
2021/12/11 10:45:29;;;;;;;16.50;11.50;;;6.10;79.70;;;;;;5035367;28;20941;-48
2021/12/11 10:48:02;;;;;;;15.17;10.40;;;6.00;79.40;;;;;;5030915;28;20551;-48
2021/12/11 10:50:44;;;;;;;14.67;10.70;;;6.00;79.60;;;;;;5034601;28;20475;-48
2021/12/11 10:53:19;;;;;;;17.90;11.23;;;6.00;78.80;;;;;;5036821;28;20480;-48
2021/12/11 10:55:47;;;;;;;15.40;11.13;;;6.00;79.50;;;;;;5033909;28;20451;-48
2021/12/11 10:58:20;;;;;;;17.53;11.73;;;6.00;79.50;;;;;;5031992;28;20456;-48
2021/12/11 11:00:58;;;;;;;15.07;10.27;;;6.00;79.40;;;;;;5037205;28;20456;-48
2021/12/11 11:03:30;;;;;;;13.80;10.27;;;6.00;78.90;;;;;;5035219;28;20984;-48
2021/12/11 11:05:57;;;;;;;14.67;11.00;;;6.00;78.90;;;;;;5032523;28;20551;-48
2021/12/11 11:08:24;;;;;;;15.63;11.73;;;5.90;79.10;;;;;;5037638;28;20531;-48
2021/12/11 11:10:58;;;;;;;16.27;11.80;;;5.90;79.50;;;;;;5017151;28;20471;-48
2021/12/11 11:13:25;;;;;;;16.67;10.40;;;5.90;78.30;;;;;;5032401;28;20479;-48
2021/12/11 11:15:54;;;;;;;14.67;11.20;;;5.90;79.30;;;;;;5035389;28;20512;-48
2021/12/11 11:18:23;;;;;;;14.40;10.73;;;5.90;80.10;;;;;;5039445;28;21045;-48
2021/12/11 11:21:12;;;;;;;14.90;10.47;;;6.00;79.90;;;;;;5042511;28;20863;-48
2021/12/11 11:23:41;;;;;;;15.87;9.70;;;6.00;79.20;;;;;;5008817;28;20503;-48
2021/12/11 11:26:12;;;;;;;13.27;10.57;;;6.00;78.40;;;;;;5034528;28;20487;-48
2021/12/11 11:28:39;;;;;;;14.80;10.93;;;6.00;78.80;;;;;;5037047;28;21011;-48
2021/12/11 11:31:22;;;;;;;17.60;11.60;;;5.90;79.00;;;;;;5034784;28;21051;-48
2021/12/11 11:33:50;;;;;;;16.70;10.70;;;5.90;79.70;;;;;;5039900;28;20487;-48
2021/12/11 11:36:22;;;;;;;20.43;11.87;;;5.90;79.90;;;;;;5034024;28;20473;-48
2021/12/11 11:38:53;;;;;;;15.97;10.47;;;5.80;79.80;;;;;;5034230;28;20957;-48
2021/12/11 11:41:34;;;;;;;17.17;10.90;;;5.90;80.50;;;;;;5018685;28;20462;-48
2021/12/11 11:44:03;;;;;;;18.30;11.00;;;5.90;80.00;;;;;;5035159;28;20452;-48
2021/12/11 11:46:30;;;;;;;16.23;10.73;;;5.90;79.50;;;;;;5032889;28;20460;-48
2021/12/11 11:49:00;;;;;;;23.57;15.03;;;5.90;79.70;;;;;;5033480;28;20463;-48
2021/12/11 11:51:31;;;;;;;22.33;13.17;;;5.90;79.80;;;;;;5034530;28;20467;-48
2021/12/11 11:53:58;;;;;;;15.77;11.40;;;5.90;79.80;;;;;;5037887;28;20839;-48
2021/12/11 11:56:28;;;;;;;16.50;10.60;;;5.90;79.70;;;;;;5022948;28;20465;-48
2021/12/11 11:58:56;;;;;;;16.23;10.80;;;5.90;79.80;;;;;;5030750;28;20828;-48
2021/12/11 12:01:28;;;;;;;16.40;11.60;;;5.90;79.80;;;;;;5030658;28;20463;-48
2021/12/11 12:03:57;;;;;;;16.00;10.73;;;5.90;80.10;;;;;;5035702;28;20459;-48
2021/12/11 12:06:30;;;;;;;15.63;9.80;;;5.80;80.50;;;;;;5033795;28;20467;-48
2021/12/11 12:08:59;;;;;;;14.20;10.07;;;5.90;80.90;;;;;;5035546;28;20455;-48
2021/12/11 12:11:31;;;;;;;13.50;9.47;;;5.90;80.50;;;;;;5038875;28;20460;-48
2021/12/11 12:14:00;;;;;;;17.17;10.73;;;5.90;80.20;;;;;;5032873;28;20489;-48
2021/12/11 12:16:32;;;;;;;18.60;9.97;;;5.90;80.20;;;;;;5017372;28;20463;-48
2021/12/11 12:19:00;;;;;;;15.33;10.30;;;5.90;79.90;;;;;;5033748;28;20461;-48
2021/12/11 12:21:29;;;;;;;15.03;9.67;;;5.90;80.10;;;;;;5037846;28;20575;-48
2021/12/11 12:23:57;;;;;;;18.80;10.97;;;6.00;80.20;;;;;;5031834;28;20615;-48
2021/12/11 12:26:27;;;;;;;16.80;9.53;;;6.00;79.90;;;;;;5019148;28;20552;-48
2021/12/11 12:28:56;;;;;;;13.53;9.60;;;5.90;78.80;;;;;;5021088;28;20459;-48
2021/12/11 12:31:32;;;;;;;16.13;10.40;;;5.90;79.30;;;;;;5030944;28;20501;-48
2021/12/11 12:33:59;;;;;;;16.50;9.43;;;5.90;80.10;;;;;;5029002;28;20864;-48
2021/12/11 12:36:26;;;;;;;15.80;9.83;;;5.90;80.90;;;;;;5022103;28;20461;-48
2021/12/11 12:38:54;;;;;;;18.60;10.30;;;5.80;80.80;;;;;;5015893;28;20455;-48
2021/12/11 12:41:38;;;;;;;17.90;9.97;;;5.80;81.30;;;;;;5021951;28;20577;-48
2021/12/11 12:44:18;;;;;;;17.93;10.27;;;5.70;81.60;;;;;;5035179;28;20464;-48
2021/12/11 12:47:00;;;;;;;16.83;10.20;;;5.70;81.90;;;;;;5021095;28;21025;-48
2021/12/11 12:49:32;;;;;;;17.10;10.70;;;5.70;82.30;;;;;;5014764;28;20451;-48
2021/12/11 12:52:05;;;;;;;17.03;10.63;;;5.70;82.40;;;;;;5014989;28;20470;-48
2021/12/11 12:54:32;;;;;;;14.37;10.20;;;5.70;82.60;;;;;;5032120;28;20488;-48
2021/12/11 12:57:11;;;;;;;17.20;10.37;;;5.70;82.40;;;;;;5030520;28;20465;-48
2021/12/11 12:59:53;;;;;;;14.53;9.33;;;5.70;82.60;;;;;;5035044;28;20447;-48
2021/12/11 13:02:23;;;;;;;16.00;9.80;;;5.60;82.60;;;;;;5020935;28;20531;-48
2021/12/11 13:04:57;;;;;;;13.30;9.20;;;5.50;83.00;;;;;;5018654;28;20816;-48
2021/12/11 13:07:47;;;;;;;14.87;10.10;;;5.50;83.30;;;;;;5035385;28;20440;-48
2021/12/11 13:10:20;;;;;;;15.83;9.60;;;5.50;83.30;;;;;;5015606;28;20448;-48
2021/12/11 13:12:49;;;;;;;15.53;9.07;;;5.60;82.80;;;;;;5033039;28;20865;-48
2021/12/11 13:15:25;;;;;;;13.00;8.83;;;5.60;82.70;;;;;;5022481;28;21016;-48
2021/12/11 13:17:53;;;;;;;15.27;9.50;;;5.60;83.40;;;;;;5032379;28;20448;-48
2021/12/11 13:20:27;;;;;;;17.20;10.90;;;5.60;83.20;;;;;;5016271;28;20460;-48
2021/12/11 13:22:54;;;;;;;14.97;10.10;;;5.60;82.70;;;;;;5029065;28;20459;-48
2021/12/11 13:25:28;;;;;;;11.50;8.40;;;5.60;83.60;;;;;;5017552;28;20531;-48
2021/12/11 13:27:59;;;;;;;16.80;10.40;;;5.50;84.00;;;;;;5033356;28;20450;-48